sensor_id;sensor_type;location;lat;lon;timestamp;P1;durP1;ratioP1;P2;durP2;ratioP2
77105;SDS011;66057;54.718;18.426;2023-10-13T00:01:55;3.83;;;0.85;;
77105;SDS011;66057;54.718;18.426;2023-10-13T00:04:24;4.72;;;1.38;;
77105;SDS011;66057;54.718;18.426;2023-10-13T00:09:22;8.57;;;2.03;;
77105;SDS011;66057;54.718;18.426;2023-10-13T00:11:59;6.68;;;1.00;;
77105;SDS011;66057;54.718;18.426;2023-10-13T00:14:25;11.30;;;1.83;;
77105;SDS011;66057;54.718;18.426;2023-10-13T00:17:02;2.88;;;1.23;;
77105;SDS011;66057;54.718;18.426;2023-10-13T00:19:30;4.07;;;1.63;;
77105;SDS011;66057;54.718;18.426;2023-10-13T00:22:08;7.50;;;1.25;;
77105;SDS011;66057;54.718;18.426;2023-10-13T00:24:38;5.45;;;1.25;;
77105;SDS011;66057;54.718;18.426;2023-10-13T00:27:15;8.18;;;2.38;;
77105;SDS011;66057;54.718;18.426;2023-10-13T00:30:02;2.95;;;0.63;;
77105;SDS011;66057;54.718;18.426;2023-10-13T00:32:50;3.42;;;0.82;;
77105;SDS011;66057;54.718;18.426;2023-10-13T00:35:20;6.10;;;1.25;;
77105;SDS011;66057;54.718;18.426;2023-10-13T00:38:05;9.43;;;1.80;;
77105;SDS011;66057;54.718;18.426;2023-10-13T00:40:45;2.78;;;1.23;;
77105;SDS011;66057;54.718;18.426;2023-10-13T00:43:18;7.40;;;1.13;;
77105;SDS011;66057;54.718;18.426;2023-10-13T00:45:54;6.40;;;2.17;;
77105;SDS011;66057;54.718;18.426;2023-10-13T00:50:58;5.55;;;1.25;;
77105;SDS011;66057;54.718;18.426;2023-10-13T00:53:29;6.05;;;2.22;;
77105;SDS011;66057;54.718;18.426;2023-10-13T00:56:01;4.22;;;0.95;;
77105;SDS011;66057;54.718;18.426;2023-10-13T00:58:35;5.50;;;1.30;;
77105;SDS011;66057;54.718;18.426;2023-10-13T01:01:01;3.28;;;1.23;;
77105;SDS011;66057;54.718;18.426;2023-10-13T01:03:46;3.83;;;1.10;;
77105;SDS011;66057;54.718;18.426;2023-10-13T01:06:23;1.02;;;0.68;;
77105;SDS011;66057;54.718;18.426;2023-10-13T01:09:02;2.22;;;0.68;;
77105;SDS011;66057;54.718;18.426;2023-10-13T01:11:39;11.98;;;1.40;;
77105;SDS011;66057;54.718;18.426;2023-10-13T01:14:09;14.40;;;1.88;;
77105;SDS011;66057;54.718;18.426;2023-10-13T01:16:39;3.47;;;0.80;;
77105;SDS011;66057;54.718;18.426;2023-10-13T01:19:14;4.85;;;1.42;;
77105;SDS011;66057;54.718;18.426;2023-10-13T01:21:48;2.58;;;1.33;;
77105;SDS011;66057;54.718;18.426;2023-10-13T01:24:14;13.95;;;1.50;;
77105;SDS011;66057;54.718;18.426;2023-10-13T01:26:45;1.92;;;0.47;;
77105;SDS011;66057;54.718;18.426;2023-10-13T01:29:16;1.20;;;0.68;;
77105;SDS011;66057;54.718;18.426;2023-10-13T01:31:47;8.13;;;1.13;;
77105;SDS011;66057;54.718;18.426;2023-10-13T01:34:14;5.93;;;0.95;;
77105;SDS011;66057;54.718;18.426;2023-10-13T01:36:52;10.10;;;1.60;;
77105;SDS011;66057;54.718;18.426;2023-10-13T01:39:20;3.45;;;1.13;;
77105;SDS011;66057;54.718;18.426;2023-10-13T01:41:52;5.68;;;1.02;;
77105;SDS011;66057;54.718;18.426;2023-10-13T01:44:27;3.42;;;1.15;;
77105;SDS011;66057;54.718;18.426;2023-10-13T01:46:56;5.57;;;1.30;;
77105;SDS011;66057;54.718;18.426;2023-10-13T01:49:25;8.75;;;2.45;;
77105;SDS011;66057;54.718;18.426;2023-10-13T01:51:51;2.22;;;1.10;;
77105;SDS011;66057;54.718;18.426;2023-10-13T01:54:18;7.43;;;1.63;;
77105;SDS011;66057;54.718;18.426;2023-10-13T01:56:46;4.97;;;1.15;;
77105;SDS011;66057;54.718;18.426;2023-10-13T01:59:14;4.45;;;1.02;;
77105;SDS011;66057;54.718;18.426;2023-10-13T02:01:40;26.92;;;2.72;;
77105;SDS011;66057;54.718;18.426;2023-10-13T02:04:07;8.02;;;1.45;;
77105;SDS011;66057;54.718;18.426;2023-10-13T02:06:36;8.82;;;0.80;;
77105;SDS011;66057;54.718;18.426;2023-10-13T02:09:04;6.25;;;1.38;;
77105;SDS011;66057;54.718;18.426;2023-10-13T02:11:51;5.53;;;1.05;;
77105;SDS011;66057;54.718;18.426;2023-10-13T02:14:21;5.07;;;1.00;;
77105;SDS011;66057;54.718;18.426;2023-10-13T02:16:51;4.32;;;1.15;;
77105;SDS011;66057;54.718;18.426;2023-10-13T02:19:21;5.10;;;2.30;;
77105;SDS011;66057;54.718;18.426;2023-10-13T02:21:52;5.38;;;1.23;;
77105;SDS011;66057;54.718;18.426;2023-10-13T02:24:24;6.47;;;1.10;;
77105;SDS011;66057;54.718;18.426;2023-10-13T02:26:55;8.05;;;1.70;;
77105;SDS011;66057;54.718;18.426;2023-10-13T02:29:28;4.63;;;2.22;;
77105;SDS011;66057;54.718;18.426;2023-10-13T02:31:54;4.97;;;1.25;;
77105;SDS011;66057;54.718;18.426;2023-10-13T02:34:20;2.55;;;0.57;;
77105;SDS011;66057;54.718;18.426;2023-10-13T02:36:51;4.30;;;1.52;;
77105;SDS011;66057;54.718;18.426;2023-10-13T02:39:19;5.05;;;1.48;;
77105;SDS011;66057;54.718;18.426;2023-10-13T02:41:51;4.53;;;1.00;;
77105;SDS011;66057;54.718;18.426;2023-10-13T02:44:21;10.98;;;1.23;;
77105;SDS011;66057;54.718;18.426;2023-10-13T02:46:56;5.63;;;1.10;;
77105;SDS011;66057;54.718;18.426;2023-10-13T02:49:24;2.75;;;1.00;;
77105;SDS011;66057;54.718;18.426;2023-10-13T02:52:02;10.45;;;1.50;;
77105;SDS011;66057;54.718;18.426;2023-10-13T02:54:34;5.07;;;0.88;;
77105;SDS011;66057;54.718;18.426;2023-10-13T02:57:20;4.97;;;1.15;;
77105;SDS011;66057;54.718;18.426;2023-10-13T02:59:48;7.20;;;1.13;;
77105;SDS011;66057;54.718;18.426;2023-10-13T03:02:21;3.65;;;1.95;;
77105;SDS011;66057;54.718;18.426;2023-10-13T03:04:51;6.85;;;0.75;;
77105;SDS011;66057;54.718;18.426;2023-10-13T03:07:37;3.83;;;1.25;;
77105;SDS011;66057;54.718;18.426;2023-10-13T03:10:03;4.97;;;0.55;;
77105;SDS011;66057;54.718;18.426;2023-10-13T03:12:36;7.60;;;1.27;;
77105;SDS011;66057;54.718;18.426;2023-10-13T03:15:03;6.20;;;0.70;;
77105;SDS011;66057;54.718;18.426;2023-10-13T03:17:40;4.10;;;1.20;;
77105;SDS011;66057;54.718;18.426;2023-10-13T03:20:10;4.70;;;1.83;;
77105;SDS011;66057;54.718;18.426;2023-10-13T03:22:40;5.05;;;1.25;;
77105;SDS011;66057;54.718;18.426;2023-10-13T03:25:14;6.72;;;1.83;;
77105;SDS011;66057;54.718;18.426;2023-10-13T03:27:49;6.80;;;1.65;;
77105;SDS011;66057;54.718;18.426;2023-10-13T03:30:21;5.28;;;1.02;;
77105;SDS011;66057;54.718;18.426;2023-10-13T03:32:54;3.45;;;0.98;;
77105;SDS011;66057;54.718;18.426;2023-10-13T03:35:21;7.30;;;2.05;;
77105;SDS011;66057;54.718;18.426;2023-10-13T03:37:51;8.20;;;1.27;;
77105;SDS011;66057;54.718;18.426;2023-10-13T03:40:20;10.98;;;2.45;;
77105;SDS011;66057;54.718;18.426;2023-10-13T03:42:50;7.65;;;1.55;;
77105;SDS011;66057;54.718;18.426;2023-10-13T03:45:37;5.63;;;0.98;;
77105;SDS011;66057;54.718;18.426;2023-10-13T03:48:16;3.88;;;1.20;;
77105;SDS011;66057;54.718;18.426;2023-10-13T03:50:53;3.65;;;2.38;;
77105;SDS011;66057;54.718;18.426;2023-10-13T03:53:32;5.40;;;2.05;;
77105;SDS011;66057;54.718;18.426;2023-10-13T03:56:01;2.88;;;0.90;;
77105;SDS011;66057;54.718;18.426;2023-10-13T03:58:34;7.38;;;1.10;;
77105;SDS011;66057;54.718;18.426;2023-10-13T04:01:04;5.28;;;1.38;;
77105;SDS011;66057;54.718;18.426;2023-10-13T04:03:31;3.20;;;0.82;;
77105;SDS011;66057;54.718;18.426;2023-10-13T04:06:06;2.97;;;1.38;;
77105;SDS011;66057;54.718;18.426;2023-10-13T04:08:32;7.35;;;1.33;;
77105;SDS011;66057;54.718;18.426;2023-10-13T04:11:07;2.67;;;0.93;;
77105;SDS011;66057;54.718;18.426;2023-10-13T04:13:52;2.75;;;0.63;;
77105;SDS011;66057;54.718;18.426;2023-10-13T04:16:36;10.75;;;1.38;;
77105;SDS011;66057;54.718;18.426;2023-10-13T04:19:03;1.13;;;0.50;;
77105;SDS011;66057;54.718;18.426;2023-10-13T04:21:33;6.70;;;1.25;;
77105;SDS011;66057;54.718;18.426;2023-10-13T04:24:06;6.65;;;0.98;;
77105;SDS011;66057;54.718;18.426;2023-10-13T04:26:52;6.03;;;1.55;;
77105;SDS011;66057;54.718;18.426;2023-10-13T04:29:37;5.68;;;1.73;;
77105;SDS011;66057;54.718;18.426;2023-10-13T04:32:22;9.70;;;1.98;;
77105;SDS011;66057;54.718;18.426;2023-10-13T04:35:00;7.00;;;2.33;;
77105;SDS011;66057;54.718;18.426;2023-10-13T04:37:36;9.23;;;2.40;;
77105;SDS011;66057;54.718;18.426;2023-10-13T04:40:20;9.23;;;2.70;;
77105;SDS011;66057;54.718;18.426;2023-10-13T04:43:00;3.28;;;1.20;;
77105;SDS011;66057;54.718;18.426;2023-10-13T04:45:45;2.05;;;1.23;;
77105;SDS011;66057;54.718;18.426;2023-10-13T04:48:20;7.97;;;1.75;;
77105;SDS011;66057;54.718;18.426;2023-10-13T04:50:48;3.67;;;2.60;;
77105;SDS011;66057;54.718;18.426;2023-10-13T04:53:24;10.95;;;1.88;;
77105;SDS011;66057;54.718;18.426;2023-10-13T04:55:59;6.35;;;2.65;;
77105;SDS011;66057;54.718;18.426;2023-10-13T04:58:29;5.60;;;2.40;;
77105;SDS011;66057;54.718;18.426;2023-10-13T05:01:02;3.55;;;3.13;;
77105;SDS011;66057;54.718;18.426;2023-10-13T05:03:47;3.92;;;2.45;;
77105;SDS011;66057;54.718;18.426;2023-10-13T05:06:31;12.02;;;6.57;;
77105;SDS011;66057;54.718;18.426;2023-10-13T05:09:12;10.63;;;5.85;;
77105;SDS011;66057;54.718;18.426;2023-10-13T05:11:57;8.52;;;5.10;;
77105;SDS011;66057;54.718;18.426;2023-10-13T05:14:43;7.40;;;4.93;;
77105;SDS011;66057;54.718;18.426;2023-10-13T05:17:27;11.10;;;5.07;;
77105;SDS011;66057;54.718;18.426;2023-10-13T05:20:12;7.97;;;3.33;;
77105;SDS011;66057;54.718;18.426;2023-10-13T05:22:56;11.40;;;2.30;;
77105;SDS011;66057;54.718;18.426;2023-10-13T05:25:44;2.55;;;0.65;;
77105;SDS011;66057;54.718;18.426;2023-10-13T05:28:28;8.60;;;3.08;;
77105;SDS011;66057;54.718;18.426;2023-10-13T05:31:13;9.98;;;2.53;;
77105;SDS011;66057;54.718;18.426;2023-10-13T05:33:57;15.65;;;5.05;;
77105;SDS011;66057;54.718;18.426;2023-10-13T05:36:42;10.05;;;2.50;;
77105;SDS011;66057;54.718;18.426;2023-10-13T05:39:26;3.88;;;1.90;;
77105;SDS011;66057;54.718;18.426;2023-10-13T05:42:11;8.18;;;3.00;;
77105;SDS011;66057;54.718;18.426;2023-10-13T05:44:55;9.07;;;2.75;;
77105;SDS011;66057;54.718;18.426;2023-10-13T05:47:33;6.70;;;2.97;;
77105;SDS011;66057;54.718;18.426;2023-10-13T05:50:02;10.90;;;3.67;;
77105;SDS011;66057;54.718;18.426;2023-10-13T05:52:41;5.63;;;2.08;;
77105;SDS011;66057;54.718;18.426;2023-10-13T05:55:29;2.97;;;1.63;;
77105;SDS011;66057;54.718;18.426;2023-10-13T05:58:14;9.57;;;2.17;;
77105;SDS011;66057;54.718;18.426;2023-10-13T06:00:59;16.00;;;2.63;;
77105;SDS011;66057;54.718;18.426;2023-10-13T06:03:44;5.70;;;1.77;;
77105;SDS011;66057;54.718;18.426;2023-10-13T06:06:28;7.68;;;2.60;;
77105;SDS011;66057;54.718;18.426;2023-10-13T06:09:12;8.73;;;1.70;;
77105;SDS011;66057;54.718;18.426;2023-10-13T06:11:57;4.28;;;1.23;;
77105;SDS011;66057;54.718;18.426;2023-10-13T06:14:45;6.80;;;2.28;;
77105;SDS011;66057;54.718;18.426;2023-10-13T06:17:32;3.20;;;1.08;;
77105;SDS011;66057;54.718;18.426;2023-10-13T06:20:17;7.75;;;2.58;;
77105;SDS011;66057;54.718;18.426;2023-10-13T06:23:01;7.80;;;1.75;;
77105;SDS011;66057;54.718;18.426;2023-10-13T06:25:52;7.72;;;2.65;;
77105;SDS011;66057;54.718;18.426;2023-10-13T06:28:37;11.00;;;2.85;;
77105;SDS011;66057;54.718;18.426;2023-10-13T06:31:07;13.43;;;3.72;;
77105;SDS011;66057;54.718;18.426;2023-10-13T06:33:37;6.93;;;2.20;;
77105;SDS011;66057;54.718;18.426;2023-10-13T06:36:07;9.15;;;3.65;;
77105;SDS011;66057;54.718;18.426;2023-10-13T06:38:37;10.65;;;2.60;;
77105;SDS011;66057;54.718;18.426;2023-10-13T06:41:07;11.90;;;3.03;;
77105;SDS011;66057;54.718;18.426;2023-10-13T06:43:36;9.35;;;2.55;;
77105;SDS011;66057;54.718;18.426;2023-10-13T06:46:09;7.13;;;2.40;;
77105;SDS011;66057;54.718;18.426;2023-10-13T06:48:49;12.38;;;3.10;;
77105;SDS011;66057;54.718;18.426;2023-10-13T06:51:19;10.50;;;2.78;;
77105;SDS011;66057;54.718;18.426;2023-10-13T06:53:51;8.73;;;2.47;;
77105;SDS011;66057;54.718;18.426;2023-10-13T06:56:22;10.60;;;2.72;;
77105;SDS011;66057;54.718;18.426;2023-10-13T06:58:53;11.73;;;2.55;;
77105;SDS011;66057;54.718;18.426;2023-10-13T07:01:27;8.95;;;2.40;;
77105;SDS011;66057;54.718;18.426;2023-10-13T07:03:54;7.88;;;2.60;;
77105;SDS011;66057;54.718;18.426;2023-10-13T07:06:27;5.32;;;2.00;;
77105;SDS011;66057;54.718;18.426;2023-10-13T07:08:52;9.27;;;2.75;;
77105;SDS011;66057;54.718;18.426;2023-10-13T07:11:19;11.38;;;2.58;;
77105;SDS011;66057;54.718;18.426;2023-10-13T07:13:59;14.90;;;2.88;;
77105;SDS011;66057;54.718;18.426;2023-10-13T07:16:44;8.23;;;2.20;;
77105;SDS011;66057;54.718;18.426;2023-10-13T07:19:28;8.27;;;2.40;;
77105;SDS011;66057;54.718;18.426;2023-10-13T07:21:55;19.13;;;3.17;;
77105;SDS011;66057;54.718;18.426;2023-10-13T07:24:27;11.80;;;2.75;;
77105;SDS011;66057;54.718;18.426;2023-10-13T07:26:58;12.90;;;2.75;;
77105;SDS011;66057;54.718;18.426;2023-10-13T07:29:31;4.03;;;1.17;;
77105;SDS011;66057;54.718;18.426;2023-10-13T07:32:01;12.40;;;2.50;;
77105;SDS011;66057;54.718;18.426;2023-10-13T07:34:38;6.72;;;2.20;;
77105;SDS011;66057;54.718;18.426;2023-10-13T07:37:05;8.70;;;1.75;;
77105;SDS011;66057;54.718;18.426;2023-10-13T07:39:38;9.50;;;2.58;;
77105;SDS011;66057;54.718;18.426;2023-10-13T07:42:06;8.50;;;1.80;;
77105;SDS011;66057;54.718;18.426;2023-10-13T07:44:45;7.68;;;1.95;;
77105;SDS011;66057;54.718;18.426;2023-10-13T07:47:11;8.23;;;2.05;;
77105;SDS011;66057;54.718;18.426;2023-10-13T07:49:39;11.30;;;2.10;;
77105;SDS011;66057;54.718;18.426;2023-10-13T07:52:10;9.82;;;2.70;;
77105;SDS011;66057;54.718;18.426;2023-10-13T07:54:46;12.93;;;1.83;;
77105;SDS011;66057;54.718;18.426;2023-10-13T07:57:15;6.22;;;1.58;;
77105;SDS011;66057;54.718;18.426;2023-10-13T07:59:44;10.13;;;1.88;;
77105;SDS011;66057;54.718;18.426;2023-10-13T08:02:18;12.48;;;2.97;;
77105;SDS011;66057;54.718;18.426;2023-10-13T08:05:08;5.18;;;2.17;;
77105;SDS011;66057;54.718;18.426;2023-10-13T08:07:40;10.50;;;3.05;;
77105;SDS011;66057;54.718;18.426;2023-10-13T08:10:08;7.38;;;2.08;;
77105;SDS011;66057;54.718;18.426;2023-10-13T08:12:35;5.93;;;2.00;;
77105;SDS011;66057;54.718;18.426;2023-10-13T08:15:03;6.32;;;2.17;;
77105;SDS011;66057;54.718;18.426;2023-10-13T08:17:39;8.88;;;2.70;;
77105;SDS011;66057;54.718;18.426;2023-10-13T08:20:09;9.43;;;1.92;;
77105;SDS011;66057;54.718;18.426;2023-10-13T08:22:38;8.00;;;1.70;;
77105;SDS011;66057;54.718;18.426;2023-10-13T08:25:05;8.98;;;2.30;;
77105;SDS011;66057;54.718;18.426;2023-10-13T08:27:50;8.00;;;1.95;;
77105;SDS011;66057;54.718;18.426;2023-10-13T08:30:35;5.57;;;1.80;;
77105;SDS011;66057;54.718;18.426;2023-10-13T08:33:17;6.45;;;1.63;;
77105;SDS011;66057;54.718;18.426;2023-10-13T08:35:43;6.40;;;1.13;;
77105;SDS011;66057;54.718;18.426;2023-10-13T08:38:28;5.88;;;1.30;;
77105;SDS011;66057;54.718;18.426;2023-10-13T08:40:57;7.85;;;1.10;;
77105;SDS011;66057;54.718;18.426;2023-10-13T08:43:46;7.95;;;1.60;;
77105;SDS011;66057;54.718;18.426;2023-10-13T08:46:16;7.20;;;1.08;;
77105;SDS011;66057;54.718;18.426;2023-10-13T08:48:57;7.80;;;1.15;;
77105;SDS011;66057;54.718;18.426;2023-10-13T08:51:41;3.75;;;0.90;;
77105;SDS011;66057;54.718;18.426;2023-10-13T08:54:15;4.75;;;0.95;;
77105;SDS011;66057;54.718;18.426;2023-10-13T08:57:00;6.75;;;1.05;;
77105;SDS011;66057;54.718;18.426;2023-10-13T08:59:45;7.18;;;1.40;;
77105;SDS011;66057;54.718;18.426;2023-10-13T09:02:20;4.35;;;0.98;;
77105;SDS011;66057;54.718;18.426;2023-10-13T09:05:09;4.30;;;1.15;;
77105;SDS011;66057;54.718;18.426;2023-10-13T09:07:55;4.47;;;1.17;;
77105;SDS011;66057;54.718;18.426;2023-10-13T09:10:34;5.70;;;1.25;;
77105;SDS011;66057;54.718;18.426;2023-10-13T09:13:09;4.90;;;1.33;;
77105;SDS011;66057;54.718;18.426;2023-10-13T09:15:47;9.02;;;1.35;;
77105;SDS011;66057;54.718;18.426;2023-10-13T09:18:25;4.70;;;1.20;;
77105;SDS011;66057;54.718;18.426;2023-10-13T09:21:14;9.43;;;1.08;;
77105;SDS011;66057;54.718;18.426;2023-10-13T09:24:13;6.07;;;0.88;;
77105;SDS011;66057;54.718;18.426;2023-10-13T09:27:00;5.18;;;0.85;;
77105;SDS011;66057;54.718;18.426;2023-10-13T09:29:28;4.82;;;1.38;;
77105;SDS011;66057;54.718;18.426;2023-10-13T09:32:03;4.65;;;1.20;;
77105;SDS011;66057;54.718;18.426;2023-10-13T09:34:30;9.02;;;2.08;;
77105;SDS011;66057;54.718;18.426;2023-10-13T09:36:59;4.40;;;1.15;;
77105;SDS011;66057;54.718;18.426;2023-10-13T09:39:28;4.75;;;1.27;;
77105;SDS011;66057;54.718;18.426;2023-10-13T09:42:10;3.22;;;0.88;;
77105;SDS011;66057;54.718;18.426;2023-10-13T09:44:38;4.20;;;1.23;;
77105;SDS011;66057;54.718;18.426;2023-10-13T09:47:08;5.22;;;1.42;;
77105;SDS011;66057;54.718;18.426;2023-10-13T09:49:45;4.28;;;1.42;;
77105;SDS011;66057;54.718;18.426;2023-10-13T09:52:16;5.47;;;0.98;;
77105;SDS011;66057;54.718;18.426;2023-10-13T09:54:51;4.28;;;0.95;;
77105;SDS011;66057;54.718;18.426;2023-10-13T09:57:30;2.78;;;0.88;;
77105;SDS011;66057;54.718;18.426;2023-10-13T10:00:19;3.85;;;0.82;;
77105;SDS011;66057;54.718;18.426;2023-10-13T10:03:22;5.40;;;1.00;;
77105;SDS011;66057;54.718;18.426;2023-10-13T10:06:00;5.13;;;1.00;;
77105;SDS011;66057;54.718;18.426;2023-10-13T10:08:40;4.63;;;0.60;;
77105;SDS011;66057;54.718;18.426;2023-10-13T10:11:19;3.30;;;0.65;;
77105;SDS011;66057;54.718;18.426;2023-10-13T10:14:24;7.00;;;1.10;;
77105;SDS011;66057;54.718;18.426;2023-10-13T10:19:16;5.25;;;1.42;;
77105;SDS011;66057;54.718;18.426;2023-10-13T10:21:43;4.78;;;1.60;;
77105;SDS011;66057;54.718;18.426;2023-10-13T10:24:14;3.03;;;0.60;;
77105;SDS011;66057;54.718;18.426;2023-10-13T10:26:55;6.68;;;1.40;;
77105;SDS011;66057;54.718;18.426;2023-10-13T10:29:24;2.25;;;1.30;;
77105;SDS011;66057;54.718;18.426;2023-10-13T10:31:52;6.30;;;1.00;;
77105;SDS011;66057;54.718;18.426;2023-10-13T10:34:18;7.15;;;0.75;;
77105;SDS011;66057;54.718;18.426;2023-10-13T10:36:54;2.70;;;0.45;;
77105;SDS011;66057;54.718;18.426;2023-10-13T10:39:20;3.35;;;0.85;;
77105;SDS011;66057;54.718;18.426;2023-10-13T10:42:11;4.00;;;0.90;;
77105;SDS011;66057;54.718;18.426;2023-10-13T10:44:41;4.22;;;0.80;;
77105;SDS011;66057;54.718;18.426;2023-10-13T10:47:14;2.63;;;0.75;;
77105;SDS011;66057;54.718;18.426;2023-10-13T10:49:59;5.93;;;0.98;;
77105;SDS011;66057;54.718;18.426;2023-10-13T10:52:32;2.92;;;0.82;;
77105;SDS011;66057;54.718;18.426;2023-10-13T10:55:05;2.72;;;0.77;;
77105;SDS011;66057;54.718;18.426;2023-10-13T10:57:33;6.13;;;1.08;;
77105;SDS011;66057;54.718;18.426;2023-10-13T11:00:20;4.78;;;0.70;;
77105;SDS011;66057;54.718;18.426;2023-10-13T11:02:53;4.60;;;0.85;;
77105;SDS011;66057;54.718;18.426;2023-10-13T11:05:25;6.78;;;1.13;;
77105;SDS011;66057;54.718;18.426;2023-10-13T11:07:58;4.43;;;0.90;;
77105;SDS011;66057;54.718;18.426;2023-10-13T11:10:24;3.10;;;0.70;;
77105;SDS011;66057;54.718;18.426;2023-10-13T11:12:53;3.22;;;0.50;;
77105;SDS011;66057;54.718;18.426;2023-10-13T11:15:44;3.45;;;1.05;;
77105;SDS011;66057;54.718;18.426;2023-10-13T11:18:10;3.17;;;0.90;;
77105;SDS011;66057;54.718;18.426;2023-10-13T11:20:49;3.85;;;0.93;;
77105;SDS011;66057;54.718;18.426;2023-10-13T11:23:20;5.45;;;0.80;;
77105;SDS011;66057;54.718;18.426;2023-10-13T11:26:00;5.13;;;0.75;;
77105;SDS011;66057;54.718;18.426;2023-10-13T11:28:26;4.35;;;0.90;;
77105;SDS011;66057;54.718;18.426;2023-10-13T11:30:55;8.10;;;1.27;;
77105;SDS011;66057;54.718;18.426;2023-10-13T11:33:36;7.32;;;0.90;;
77105;SDS011;66057;54.718;18.426;2023-10-13T11:36:12;4.88;;;0.90;;
77105;SDS011;66057;54.718;18.426;2023-10-13T11:38:47;3.65;;;0.70;;
77105;SDS011;66057;54.718;18.426;2023-10-13T11:41:14;6.47;;;1.40;;
77105;SDS011;66057;54.718;18.426;2023-10-13T11:43:47;5.13;;;1.48;;
77105;SDS011;66057;54.718;18.426;2023-10-13T11:46:19;9.07;;;2.15;;
77105;SDS011;66057;54.718;18.426;2023-10-13T11:49:03;3.15;;;1.20;;
77105;SDS011;66057;54.718;18.426;2023-10-13T11:51:42;8.25;;;1.63;;
77105;SDS011;66057;54.718;18.426;2023-10-13T11:54:12;5.72;;;1.00;;
77105;SDS011;66057;54.718;18.426;2023-10-13T11:56:38;5.45;;;0.82;;
77105;SDS011;66057;54.718;18.426;2023-10-13T11:59:04;1.45;;;0.75;;
77105;SDS011;66057;54.718;18.426;2023-10-13T12:01:31;6.18;;;1.25;;
77105;SDS011;66057;54.718;18.426;2023-10-13T12:04:30;3.50;;;1.23;;
77105;SDS011;66057;54.718;18.426;2023-10-13T12:06:58;7.75;;;1.67;;
77105;SDS011;66057;54.718;18.426;2023-10-13T12:09:56;8.05;;;1.75;;
77105;SDS011;66057;54.718;18.426;2023-10-13T12:12:25;7.05;;;2.15;;
77105;SDS011;66057;54.718;18.426;2023-10-13T12:15:12;6.63;;;1.23;;
77105;SDS011;66057;54.718;18.426;2023-10-13T12:17:51;3.55;;;1.15;;
77105;SDS011;66057;54.718;18.426;2023-10-13T12:20:16;4.78;;;0.90;;
77105;SDS011;66057;54.718;18.426;2023-10-13T12:23:00;6.22;;;1.05;;
77105;SDS011;66057;54.718;18.426;2023-10-13T12:25:44;6.20;;;1.05;;
77105;SDS011;66057;54.718;18.426;2023-10-13T12:28:25;3.72;;;1.02;;
77105;SDS011;66057;54.718;18.426;2023-10-13T12:30:55;2.22;;;1.17;;
77105;SDS011;66057;54.718;18.426;2023-10-13T12:33:23;5.43;;;1.92;;
77105;SDS011;66057;54.718;18.426;2023-10-13T12:35:55;3.78;;;1.60;;
77105;SDS011;66057;54.718;18.426;2023-10-13T12:38:40;6.05;;;2.22;;
77105;SDS011;66057;54.718;18.426;2023-10-13T12:41:15;6.05;;;1.65;;
77105;SDS011;66057;54.718;18.426;2023-10-13T12:44:00;6.03;;;2.35;;
77105;SDS011;66057;54.718;18.426;2023-10-13T12:46:44;4.53;;;2.53;;
77105;SDS011;66057;54.718;18.426;2023-10-13T12:49:29;6.07;;;2.33;;
77105;SDS011;66057;54.718;18.426;2023-10-13T12:52:12;6.90;;;2.90;;
77105;SDS011;66057;54.718;18.426;2023-10-13T12:54:42;8.07;;;4.30;;
77105;SDS011;66057;54.718;18.426;2023-10-13T12:57:29;10.27;;;3.40;;
77105;SDS011;66057;54.718;18.426;2023-10-13T12:59:56;7.22;;;3.03;;
77105;SDS011;66057;54.718;18.426;2023-10-13T13:02:22;9.45;;;3.80;;
77105;SDS011;66057;54.718;18.426;2023-10-13T13:04:52;9.68;;;4.68;;
77105;SDS011;66057;54.718;18.426;2023-10-13T13:07:27;9.40;;;3.75;;
77105;SDS011;66057;54.718;18.426;2023-10-13T13:09:56;12.98;;;3.85;;
77105;SDS011;66057;54.718;18.426;2023-10-13T13:12:25;10.43;;;3.90;;
77105;SDS011;66057;54.718;18.426;2023-10-13T13:14:54;10.52;;;4.35;;
77105;SDS011;66057;54.718;18.426;2023-10-13T13:17:20;12.40;;;5.25;;
77105;SDS011;66057;54.718;18.426;2023-10-13T13:22:12;17.10;;;5.75;;
77105;SDS011;66057;54.718;18.426;2023-10-13T13:27:15;11.07;;;5.00;;
77105;SDS011;66057;54.718;18.426;2023-10-13T13:29:49;12.75;;;5.32;;
77105;SDS011;66057;54.718;18.426;2023-10-13T13:32:17;10.32;;;5.78;;
77105;SDS011;66057;54.718;18.426;2023-10-13T13:34:44;14.20;;;6.18;;
77105;SDS011;66057;54.718;18.426;2023-10-13T13:37:19;11.48;;;5.75;;
77105;SDS011;66057;54.718;18.426;2023-10-13T13:39:45;12.57;;;5.20;;
77105;SDS011;66057;54.718;18.426;2023-10-13T13:42:11;11.80;;;6.30;;
77105;SDS011;66057;54.718;18.426;2023-10-13T13:44:43;11.07;;;5.63;;
77105;SDS011;66057;54.718;18.426;2023-10-13T13:47:12;11.32;;;6.38;;
77105;SDS011;66057;54.718;18.426;2023-10-13T13:49:39;12.75;;;5.88;;
77105;SDS011;66057;54.718;18.426;2023-10-13T13:52:06;15.10;;;6.63;;
77105;SDS011;66057;54.718;18.426;2023-10-13T13:54:33;15.35;;;6.18;;
77105;SDS011;66057;54.718;18.426;2023-10-13T13:56:59;12.98;;;6.60;;
77105;SDS011;66057;54.718;18.426;2023-10-13T13:59:25;16.67;;;7.88;;
77105;SDS011;66057;54.718;18.426;2023-10-13T14:01:51;14.55;;;6.70;;
77105;SDS011;66057;54.718;18.426;2023-10-13T14:04:18;13.70;;;6.45;;
77105;SDS011;66057;54.718;18.426;2023-10-13T14:06:44;14.73;;;7.40;;
77105;SDS011;66057;54.718;18.426;2023-10-13T14:09:10;17.30;;;8.20;;
77105;SDS011;66057;54.718;18.426;2023-10-13T14:11:41;14.85;;;7.47;;
77105;SDS011;66057;54.718;18.426;2023-10-13T14:14:37;19.08;;;8.75;;
77105;SDS011;66057;54.718;18.426;2023-10-13T14:17:03;15.52;;;7.38;;
77105;SDS011;66057;54.718;18.426;2023-10-13T14:19:32;21.27;;;9.30;;
77105;SDS011;66057;54.718;18.426;2023-10-13T14:21:58;17.35;;;8.35;;
77105;SDS011;66057;54.718;18.426;2023-10-13T14:24:27;16.90;;;8.27;;
77105;SDS011;66057;54.718;18.426;2023-10-13T14:26:57;18.50;;;8.00;;
77105;SDS011;66057;54.718;18.426;2023-10-13T14:29:44;19.13;;;9.15;;
77105;SDS011;66057;54.718;18.426;2023-10-13T14:32:12;20.42;;;9.20;;
77105;SDS011;66057;54.718;18.426;2023-10-13T14:34:41;16.40;;;8.23;;
77105;SDS011;66057;54.718;18.426;2023-10-13T14:37:11;15.77;;;7.55;;
77105;SDS011;66057;54.718;18.426;2023-10-13T14:39:40;17.83;;;9.23;;
77105;SDS011;66057;54.718;18.426;2023-10-13T14:42:06;15.55;;;8.82;;
77105;SDS011;66057;54.718;18.426;2023-10-13T14:44:32;18.80;;;9.05;;
77105;SDS011;66057;54.718;18.426;2023-10-13T14:47:02;25.88;;;11.38;;
77105;SDS011;66057;54.718;18.426;2023-10-13T14:49:31;22.63;;;10.68;;
77105;SDS011;66057;54.718;18.426;2023-10-13T14:51:57;15.57;;;7.80;;
77105;SDS011;66057;54.718;18.426;2023-10-13T14:54:25;23.00;;;10.35;;
77105;SDS011;66057;54.718;18.426;2023-10-13T14:57:03;21.42;;;9.85;;
77105;SDS011;66057;54.718;18.426;2023-10-13T14:59:29;21.58;;;10.20;;
77105;SDS011;66057;54.718;18.426;2023-10-13T15:01:59;18.40;;;10.20;;
77105;SDS011;66057;54.718;18.426;2023-10-13T15:04:26;20.45;;;11.05;;
77105;SDS011;66057;54.718;18.426;2023-10-13T15:06:54;18.50;;;9.43;;
77105;SDS011;66057;54.718;18.426;2023-10-13T15:09:20;17.90;;;10.35;;
77105;SDS011;66057;54.718;18.426;2023-10-13T15:11:49;21.20;;;11.05;;
77105;SDS011;66057;54.718;18.426;2023-10-13T15:14:19;27.83;;;11.98;;
77105;SDS011;66057;54.718;18.426;2023-10-13T15:16:48;23.40;;;11.35;;
77105;SDS011;66057;54.718;18.426;2023-10-13T15:19:15;20.85;;;11.85;;
77105;SDS011;66057;54.718;18.426;2023-10-13T15:21:47;22.90;;;11.10;;
77105;SDS011;66057;54.718;18.426;2023-10-13T15:24:16;18.13;;;9.15;;
77105;SDS011;66057;54.718;18.426;2023-10-13T15:26:46;18.67;;;10.55;;